Clarksboro, New Jersey
Current Conditions -  °F | °C
As of 7:54 PM on Saturday 22 Nov 2014 (Local Time) from KPHL Reporting Station
Overcast Overcast  
Wind Chill: 38°   Ceiling: 11000
Heat Index: 44°   Visibility: 10mi
Dew Point: 22°   Wind: 12mph
Humidity: 42%   Direction: 210°SSW
Pressure: 30.3"   Gusts: NA
Location:  39.8°N, 75.22°W
Report Text: KPHL 230054Z 21010KT 10SM FEW080 OVC110 07/M06 A3030 RMK AO2 SLP258 T00671056 $
Loading
Personal Weather Stations






























Interactive Weather Map New forecast layout! Learn more

10-Day Weather Forecast

Advertisements
Track Severe Weather on mobile